createdAt,value
2018-12-29T00:00:39.231Z,102927.19
2018-12-29T00:03:12.543Z,102928.17
2018-12-29T00:05:43.290Z,102918.52
2018-12-29T00:08:19.043Z,102926.46
2018-12-29T00:10:48.697Z,102927.94
2018-12-29T00:13:19.353Z,102938.45
2018-12-29T00:15:52.721Z,102921.44
2018-12-29T00:18:23.206Z,102921.44
2018-12-29T00:20:53.521Z,102927.38
2018-12-29T00:23:26.479Z,102926.34
2018-12-29T00:25:57.042Z,102925.45
2018-12-29T00:28:27.502Z,102926.97
2018-12-29T00:31:00.681Z,102928.97
2018-12-29T00:33:31.039Z,102928.97
2018-12-29T00:36:01.377Z,102929.50
2018-12-29T00:38:33.461Z,102928.23
2018-12-29T00:41:04.301Z,102929.74
2018-12-29T00:43:35.328Z,102930.84
2018-12-29T00:46:07.340Z,102931.01
2018-12-29T00:48:37.925Z,102929.22
2018-12-29T00:51:09.894Z,102934.03
2018-12-29T00:53:44.636Z,102945.31
2018-12-29T00:56:15.561Z,102941.80
2018-12-29T00:58:46.002Z,102946.13
2018-12-29T01:01:19.967Z,102940.45
2018-12-29T01:03:50.356Z,102939.18
2018-12-29T01:06:21.947Z,102940.20
2018-12-29T01:09:00.283Z,102937.67
2018-12-29T01:11:28.990Z,102936.77
2018-12-29T01:14:00.990Z,102930.80
2018-12-29T01:16:32.275Z,102930.06
2018-12-29T01:19:02.871Z,102922.46
2018-12-29T01:21:34.453Z,102928.19
2018-12-29T01:24:09.267Z,102929.08
2018-12-29T01:26:40.430Z,102927.45
2018-12-29T01:29:10.747Z,102926.67
2018-12-29T01:31:42.838Z,102923.77
2018-12-29T01:34:14.801Z,102931.37
2018-12-29T01:36:45.154Z,102927.33
2018-12-29T01:39:17.534Z,102927.33
2018-12-29T01:41:49.753Z,102931.13
2018-12-29T01:44:20.052Z,102926.59
2018-12-29T01:46:51.619Z,102938.28
2018-12-29T01:49:22.566Z,102931.70
2018-12-29T01:51:53.155Z,102932.22
2018-12-29T01:54:30.815Z,102936.02
2018-12-29T01:57:02.415Z,102929.81
2018-12-29T01:59:33.372Z,102924.38
2018-12-29T02:02:05.435Z,102925.64
2018-12-29T02:04:36.255Z,102939.09
2018-12-29T02:07:24.683Z,102939.09
2018-12-29T02:10:00.226Z,102944.66
2018-12-29T02:12:32.048Z,102953.69
2018-12-29T02:15:02.375Z,102956.34
2018-12-29T02:17:33.360Z,102949.76
2018-12-29T02:20:06.160Z,102947.22
2018-12-29T02:22:36.670Z,102949.02
2018-12-29T02:25:07.241Z,102949.18
2018-12-29T02:27:40.635Z,102947.50
2018-12-29T02:30:10.968Z,102954.38
2018-12-29T02:32:41.521Z,102956.78
2018-12-29T02:35:18.970Z,102950.29
2018-12-29T02:37:49.629Z,102966.23
2018-12-29T02:40:20.038Z,102966.23
2018-12-29T02:42:54.422Z,102958.27
2018-12-29T02:45:32.855Z,102959.16
2018-12-29T02:47:57.031Z,102959.44
2018-12-29T02:50:32.533Z,102971.59
2018-12-29T02:53:03.296Z,102966.52
2018-12-29T02:55:33.592Z,102973.27
2018-12-29T02:58:05.396Z,102967.80
2018-12-29T03:00:36.000Z,102973.92
2018-12-29T03:03:06.659Z,102973.92
2018-12-29T03:05:38.498Z,102973.43
2018-12-29T03:08:09.277Z,102975.47
2018-12-29T03:10:39.629Z,102978.50
2018-12-29T03:13:12.519Z,102969.01
2018-12-29T03:15:42.920Z,102966.10
2018-12-29T03:18:14.701Z,102959.27
2018-12-29T03:20:45.217Z,102963.81
2018-12-29T03:23:15.560Z,102964.92
2018-12-29T03:25:52.166Z,102963.78
2018-12-29T03:28:26.456Z,102961.73
2018-12-29T03:30:57.209Z,102962.27
2018-12-29T03:33:28.814Z,102956.17
2018-12-29T03:35:59.509Z,102956.91
2018-12-29T03:38:30.845Z,102954.38
2018-12-29T03:41:01.469Z,102946.64
2018-12-29T03:43:32.156Z,102949.02
2018-12-29T03:46:11.339Z,102942.68
2018-12-29T03:48:40.322Z,102935.69
2018-12-29T03:51:10.934Z,102939.38
2018-12-29T03:53:44.759Z,102927.96
2018-12-29T03:56:16.977Z,102924.90
2018-12-29T03:58:49.695Z,102918.80
2018-12-29T04:01:26.685Z,102916.27
2018-12-29T04:03:59.953Z,102913.73
2018-12-29T04:06:33.017Z,102915.22
2018-12-29T04:09:33.150Z,102917.63
2018-12-29T04:12:10.533Z,102908.88
2018-12-29T04:14:41.247Z,102915.46
2018-12-29T04:17:11.582Z,102906.59
2018-12-29T04:22:19.028Z,102913.73
2018-12-29T04:24:51.952Z,102909.94
2018-12-29T04:27:23.392Z,102913.73
2018-12-29T04:29:53.989Z,102909.16
2018-12-29T04:32:26.040Z,102904.89
2018-12-29T04:34:57.111Z,102898.03
2018-12-29T04:37:30.560Z,102901.58
2018-12-29T04:40:02.487Z,102900.84
2018-12-29T04:42:32.803Z,102892.96
2018-12-29T04:45:07.225Z,102886.98
2018-12-29T04:47:38.056Z,102893.73
2018-12-29T04:50:09.201Z,102889.93
2018-12-29T04:52:56.534Z,102889.41
2018-12-29T04:55:16.569Z,102883.44
2018-12-29T04:57:47.289Z,102883.59
2018-12-29T05:00:19.294Z,102881.80
2018-12-29T05:02:52.690Z,102880.00
2018-12-29T05:05:23.001Z,102879.27
2018-12-29T05:07:53.689Z,102884.45
2018-12-29T05:10:24.248Z,102877.75
2018-12-29T05:12:55.030Z,102870.14
2018-12-29T05:15:25.390Z,102880.56
2018-12-29T05:17:55.853Z,102884.73
2018-12-29T05:20:26.240Z,102890.70
2018-12-29T05:22:56.858Z,102893.23
2018-12-29T05:25:27.145Z,102894.26
2018-12-29T05:27:57.776Z,102890.70
2018-12-29T05:30:28.138Z,102884.89
2018-12-29T05:33:00.178Z,102886.66
2018-12-29T05:35:30.501Z,102892.77
2018-12-29T05:38:04.181Z,102890.23
2018-12-29T05:40:34.550Z,102899.77
2018-12-29T05:43:04.904Z,102909.66
2018-12-29T05:45:38.198Z,102925.03
2018-12-29T05:48:08.655Z,102925.53
2018-12-29T05:50:39.230Z,102927.59
2018-12-29T05:53:12.258Z,102933.16
2018-12-29T05:55:42.857Z,102935.12
2018-12-29T05:58:14.316Z,102934.87
2018-12-29T06:00:47.030Z,102942.39
2018-12-29T06:03:17.527Z,102942.14
2018-12-29T06:05:48.232Z,102939.11
2018-12-29T06:08:20.868Z,102942.70
2018-12-29T06:10:52.702Z,102948.05
2018-12-29T06:13:23.025Z,102945.52
2018-12-29T06:15:54.672Z,102952.88
2018-12-29T06:18:25.271Z,102952.13
2018-12-29T06:20:57.107Z,102958.97
2018-12-29T06:23:27.523Z,102947.33
2018-12-29T06:26:04.237Z,102949.34
2018-12-29T06:28:34.763Z,102933.22
2018-12-29T06:31:10.787Z,102941.45
2018-12-29T06:33:41.060Z,102942.35
2018-12-29T06:36:11.475Z,102936.62
2018-12-29T06:38:50.799Z,102933.45
2018-12-29T06:41:19.380Z,102930.91
2018-12-29T06:43:50.010Z,102937.63
2018-12-29T06:46:23.998Z,102944.33
2018-12-29T06:48:54.509Z,102937.63
2018-12-29T06:51:25.112Z,102941.92
2018-12-29T06:53:59.983Z,102942.33
2018-12-29T06:56:31.449Z,102944.45
2018-12-29T06:59:03.835Z,102950.59
2018-12-29T07:01:38.161Z,102946.38
2018-12-29T07:04:08.855Z,102953.61
2018-12-29T07:06:42.719Z,102958.20
2018-12-29T07:09:13.032Z,102947.27
2018-12-29T07:11:49.189Z,102949.59
2018-12-29T07:14:19.435Z,102953.89
2018-12-29T07:16:51.624Z,102955.69
2018-12-29T07:19:23.922Z,102956.95
2018-12-29T07:21:55.755Z,102961.78
2018-12-29T07:24:30.054Z,102963.58
2018-12-29T07:27:02.284Z,102963.20
2018-12-29T07:29:38.246Z,102967.38
2018-12-29T07:32:19.850Z,102967.38
2018-12-29T07:34:41.130Z,102965.74
2018-12-29T07:37:11.826Z,102974.75
2018-12-29T07:39:49.197Z,102973.48
2018-12-29T07:42:20.183Z,102973.75
2018-12-29T07:44:50.504Z,102973.75
2018-12-29T07:47:26.375Z,102969.20
2018-12-29T07:49:56.500Z,102963.23
2018-12-29T07:52:27.129Z,102971.49
2018-12-29T07:55:02.653Z,102963.14
2018-12-29T07:57:33.041Z,102965.67
2018-12-29T08:00:22.653Z,102966.33
2018-12-29T08:02:53.272Z,102960.10
2018-12-29T08:05:23.608Z,102956.82
2018-12-29T08:07:57.463Z,102961.64
2018-12-29T08:10:27.755Z,102957.47
2018-12-29T08:12:58.272Z,102960.66
2018-12-29T08:15:40.963Z,102965.27
2018-12-29T08:18:11.877Z,102964.85
2018-12-29T08:20:42.192Z,102959.93
2018-12-29T08:23:20.236Z,102947.88
2018-12-29T08:25:51.713Z,102942.19
2018-12-29T08:28:22.020Z,102947.42
2018-12-29T08:30:53.666Z,102942.70
2018-12-29T08:33:24.190Z,102936.11
2018-12-29T08:35:54.642Z,102934.59
2018-12-29T08:38:25.336Z,102936.91
2018-12-29T08:40:55.694Z,102928.52
2018-12-29T08:43:37.553Z,102930.83
2018-12-29T08:46:05.751Z,102933.23
2018-12-29T08:48:52.150Z,102924.13
2018-12-29T08:51:21.495Z,102919.69
2018-12-29T08:53:51.957Z,102929.59
2018-12-29T08:56:22.625Z,102922.99
2018-12-29T08:58:53.060Z,102920.23
2018-12-29T09:01:23.380Z,102916.91
2018-12-29T09:03:53.763Z,102917.70
2018-12-29T09:06:25.106Z,102922.53
2018-12-29T09:08:55.438Z,102918.46
2018-12-29T09:11:34.901Z,102932.48
2018-12-29T09:14:05.271Z,102928.04
2018-12-29T09:16:37.804Z,102929.95
2018-12-29T09:19:08.295Z,102929.69
2018-12-29T09:21:38.754Z,102925.88
2018-12-29T09:24:09.132Z,102930.48
2018-12-29T09:26:39.550Z,102936.95
2018-12-29T09:29:11.987Z,102936.32
2018-12-29T09:31:42.382Z,102931.28
2018-12-29T09:34:14.347Z,102925.94
2018-12-29T09:36:44.696Z,102924.94
2018-12-29T09:39:20.511Z,102920.86
2018-12-29T09:41:51.462Z,102914.52
2018-12-29T09:44:30.020Z,102907.16
2018-12-29T09:47:01.676Z,102899.27
2018-12-29T09:49:42.120Z,102897.25
2018-12-29T09:52:13.815Z,102893.17
2018-12-29T09:54:49.918Z,102877.43
2018-12-29T09:57:22.294Z,102870.06
2018-12-29T09:59:52.968Z,102855.59
2018-12-29T10:02:30.304Z,102837.66
2018-12-29T10:05:00.596Z,102849.87
2018-12-29T10:07:36.051Z,102834.59
2018-12-29T10:10:08.381Z,102831.77
2018-12-29T10:12:39.288Z,102831.38
2018-12-29T10:15:09.618Z,102828.85
2018-12-29T10:17:42.541Z,102826.05
2018-12-29T10:20:13.025Z,102821.20
2018-12-29T10:22:44.858Z,102825.27
2018-12-29T10:25:15.361Z,102823.08
2018-12-29T10:27:46.998Z,102813.05
2018-12-29T10:30:17.341Z,102807.44
2018-12-29T10:32:49.260Z,102804.62
2018-12-29T10:35:21.388Z,102806.52
2018-12-29T10:37:53.698Z,102819.40
2018-12-29T10:40:24.082Z,102817.72
2018-12-29T10:42:56.732Z,102800.77
2018-12-29T10:45:27.370Z,102797.94
2018-12-29T10:47:58.319Z,102811.64
2018-12-29T10:50:28.640Z,102815.46
2018-12-29T10:52:59.326Z,102821.28
2018-12-29T10:55:35.052Z,102821.14
2018-12-29T10:58:06.593Z,102822.38
2018-12-29T11:00:36.941Z,102812.02
2018-12-29T11:03:12.671Z,102803.06
2018-12-29T11:05:44.450Z,102794.34
2018-12-29T11:08:20.594Z,102777.45
2018-12-29T11:10:51.600Z,102765.95
2018-12-29T11:13:38.890Z,102748.57
2018-12-29T11:16:01.133Z,102741.62
2018-12-29T11:18:31.936Z,102728.00
2018-12-29T11:21:03.546Z,102739.30
2018-12-29T11:23:34.981Z,102737.74
2018-12-29T11:26:09.102Z,102741.13
2018-12-29T11:28:41.017Z,102745.69
2018-12-29T11:31:11.762Z,102764.45
2018-12-29T11:33:44.900Z,102753.63
2018-12-29T11:36:15.251Z,102745.78
2018-12-29T11:38:59.392Z,102734.30
2018-12-29T11:41:26.358Z,102723.55
2018-12-29T11:44:11.488Z,102729.11
2018-12-29T11:46:34.399Z,102729.88
2018-12-29T11:49:05.016Z,102717.94
2018-12-29T11:51:35.330Z,102709.13
2018-12-29T11:54:05.976Z,102698.70
2018-12-29T11:56:47.214Z,102685.41
2018-12-29T11:59:17.485Z,102676.42
2018-12-29T12:01:47.851Z,102682.89
2018-12-29T12:04:18.471Z,102679.33
2018-12-29T12:06:48.858Z,102679.33
2018-12-29T12:09:23.313Z,102707.79
2018-12-29T12:11:53.557Z,102718.86
2018-12-29T12:14:24.168Z,102700.77
2018-12-29T12:16:54.498Z,102671.64
2018-12-29T12:19:25.260Z,102662.49
2018-12-29T12:22:01.912Z,102647.85
2018-12-29T12:24:33.881Z,102645.91
2018-12-29T12:27:04.805Z,102638.69
2018-12-29T12:29:35.140Z,102638.52
2018-12-29T12:32:05.603Z,102634.52
2018-12-29T12:34:41.699Z,102656.52
2018-12-29T12:37:12.041Z,102664.91
2018-12-29T12:39:42.883Z,102635.70
2018-12-29T12:42:14.808Z,102634.13
2018-12-29T12:44:46.046Z,102637.48
2018-12-29T12:47:30.304Z,102631.19
2018-12-29T12:50:03.319Z,102629.41
2018-12-29T12:52:35.012Z,102639.95
2018-12-29T12:55:07.103Z,102646.97
2018-12-29T12:57:44.400Z,102657.00
2018-12-29T13:00:16.572Z,102647.73
2018-12-29T13:03:06.826Z,102641.13
2018-12-29T13:05:27.747Z,102656.57
2018-12-29T13:07:58.659Z,102662.44
2018-12-29T13:10:29.007Z,102642.91
2018-12-29T13:13:01.798Z,102627.59
2018-12-29T13:15:40.902Z,102614.92
2018-12-29T13:18:13.325Z,102612.88
2018-12-29T13:20:49.216Z,102607.86
2018-12-29T13:23:19.755Z,102613.44
2018-12-29T13:25:54.544Z,102618.83
2018-12-29T13:28:24.461Z,102638.53
2018-12-29T13:30:56.280Z,102625.84
2018-12-29T13:33:26.895Z,102629.45
2018-12-29T13:35:57.271Z,102617.75
2018-12-29T13:38:32.100Z,102592.25
2018-12-29T13:41:02.410Z,102592.25
2018-12-29T13:43:33.107Z,102581.19
2018-12-29T13:46:07.082Z,102580.75
2018-12-29T13:48:37.419Z,102560.68
2018-12-29T13:51:24.847Z,102559.19
2018-12-29T13:53:41.536Z,102534.05
2018-12-29T13:56:11.861Z,102534.05
2018-12-29T13:58:42.786Z,102521.52
2018-12-29T14:01:20.255Z,102487.08
2018-12-29T14:03:50.725Z,102497.75
2018-12-29T14:06:24.885Z,102492.66
2018-12-29T14:08:57.057Z,102484.53
2018-12-29T14:11:41.930Z,102506.98
2018-12-29T14:14:07.982Z,102500.00
2018-12-29T14:16:38.719Z,102508.42
2018-12-29T14:19:10.973Z,102499.40
2018-12-29T14:21:41.580Z,102506.92
2018-12-29T14:24:11.940Z,102514.99
2018-12-29T14:26:42.340Z,102523.92
2018-12-29T14:29:12.661Z,102518.19
2018-12-29T14:31:43.012Z,102518.86
2018-12-29T14:34:14.652Z,102493.44
2018-12-29T14:36:45.340Z,102493.22
2018-12-29T14:39:20.166Z,102489.75
2018-12-29T14:41:50.687Z,102489.75
2018-12-29T14:44:25.068Z,102488.73
2018-12-29T14:46:57.665Z,102479.21
2018-12-29T14:49:31.093Z,102475.68
2018-12-29T14:52:01.538Z,102488.42
2018-12-29T14:54:34.667Z,102475.59
2018-12-29T14:57:30.338Z,102469.59
2018-12-29T14:59:47.549Z,102475.08
2018-12-29T15:02:18.015Z,102448.91
2018-12-29T15:04:52.782Z,102450.28
2018-12-29T15:07:23.196Z,102450.79
2018-12-29T15:09:56.232Z,102443.66
2018-12-29T15:12:32.984Z,102447.95
2018-12-29T15:15:04.398Z,102465.80
2018-12-29T15:17:34.973Z,102455.50
2018-12-29T15:20:05.871Z,102463.70
2018-12-29T15:22:36.635Z,102463.70
2018-12-29T15:25:19.096Z,102491.87
2018-12-29T15:27:49.894Z,102485.22
2018-12-29T15:30:20.823Z,102488.95
2018-12-29T15:32:51.203Z,102479.50
2018-12-29T15:35:21.596Z,102493.53
2018-12-29T15:37:53.399Z,102496.88
2018-12-29T15:40:26.252Z,102517.52
2018-12-29T15:42:56.589Z,102521.11
2018-12-29T15:45:33.965Z,102514.73
2018-12-29T15:48:04.735Z,102505.95
2018-12-29T15:50:35.438Z,102505.95
2018-12-29T15:53:06.609Z,102518.98
2018-12-29T15:55:37.077Z,102518.98
2018-12-29T15:58:07.799Z,102524.02
2018-12-29T16:00:38.201Z,102507.23
2018-12-29T16:03:20.531Z,102494.78
2018-12-29T16:05:47.827Z,102495.16
2018-12-29T16:08:18.343Z,102492.09
2018-12-29T16:10:50.770Z,102491.20
2018-12-29T16:13:22.339Z,102489.94
2018-12-29T16:15:52.910Z,102489.05
2018-12-29T16:18:23.752Z,102498.84
2018-12-29T16:20:55.450Z,102494.14
2018-12-29T16:23:27.036Z,102474.66
2018-12-29T16:25:59.115Z,102477.10
2018-12-29T16:28:32.153Z,102485.73
2018-12-29T16:31:02.637Z,102472.23
2018-12-29T16:33:37.829Z,102454.18
2018-12-29T16:36:08.681Z,102469.08
2018-12-29T16:38:39.167Z,102459.66
2018-12-29T16:41:10.986Z,102453.52
2018-12-29T16:43:45.166Z,102442.43
2018-12-29T16:46:15.580Z,102439.13
2018-12-29T16:48:47.711Z,102428.04
2018-12-29T16:51:19.664Z,102426.86
2018-12-29T16:53:50.385Z,102421.12
2018-12-29T16:56:23.565Z,102430.05
2018-12-29T16:58:53.274Z,102433.86
2018-12-29T17:01:25.306Z,102431.63
2018-12-29T17:03:58.696Z,102417.11
2018-12-29T17:06:29.423Z,102417.11
2018-12-29T17:09:01.451Z,102412.36
2018-12-29T17:11:31.904Z,102407.27
2018-12-29T17:14:02.454Z,102415.12
2018-12-29T17:16:33.492Z,102398.45
2018-12-29T17:19:14.693Z,102406.21
2018-12-29T17:21:41.299Z,102406.69
2018-12-29T17:24:13.949Z,102405.92
2018-12-29T17:26:47.936Z,102409.07
2018-12-29T17:29:18.248Z,102396.05
2018-12-29T17:31:49.000Z,102401.14
2018-12-29T17:34:19.703Z,102398.33
2018-12-29T17:36:50.382Z,102418.94
2018-12-29T17:39:25.563Z,102388.23
2018-12-29T17:41:55.988Z,102388.23
2018-12-29T17:44:26.318Z,102397.29
2018-12-29T17:47:00.651Z,102409.87
2018-12-29T17:49:31.072Z,102411.53
2018-12-29T17:52:19.954Z,102407.31
2018-12-29T17:54:48.995Z,102401.84
2018-12-29T17:57:19.346Z,102420.78
2018-12-29T17:59:54.022Z,102413.23
2018-12-29T18:02:23.947Z,102391.35
2018-12-29T18:04:54.343Z,102391.35
2018-12-29T18:07:34.458Z,102396.49
2018-12-29T18:10:07.171Z,102397.19
2018-12-29T18:12:43.570Z,102397.78
2018-12-29T18:15:14.313Z,102388.59
2018-12-29T18:17:45.275Z,102396.45
2018-12-29T18:20:21.950Z,102391.83
2018-12-29T18:22:52.392Z,102384.69
2018-12-29T18:25:23.896Z,102377.94
2018-12-29T18:28:03.869Z,102371.39
2018-12-29T18:30:34.324Z,102387.08
2018-12-29T18:33:05.043Z,102399.95
2018-12-29T18:35:35.553Z,102395.02
2018-12-29T18:38:15.341Z,102398.67
2018-12-29T18:40:47.576Z,102400.16
2018-12-29T18:43:18.023Z,102401.64
2018-12-29T18:45:51.003Z,102388.59
2018-12-29T18:48:21.382Z,102384.09
2018-12-29T18:50:53.863Z,102389.78
2018-12-29T18:53:25.309Z,102389.22
2018-12-29T18:55:57.800Z,102389.91
2018-12-29T18:58:29.807Z,102377.86
2018-12-29T19:01:03.154Z,102393.88
2018-12-29T19:03:33.604Z,102391.92
2018-12-29T19:06:10.657Z,102386.94
2018-12-29T19:08:41.725Z,102388.89
2018-12-29T19:11:15.565Z,102399.30
2018-12-29T19:13:47.175Z,102389.03
2018-12-29T19:16:21.016Z,102396.98
2018-12-29T19:18:53.176Z,102404.34
2018-12-29T19:21:24.268Z,102403.27
2018-12-29T19:24:13.468Z,102403.17
2018-12-29T19:26:44.340Z,102398.69
2018-12-29T19:29:20.697Z,102398.69
2018-12-29T19:31:52.556Z,102401.73
2018-12-29T19:34:29.830Z,102403.67
2018-12-29T19:36:59.220Z,102390.83
2018-12-29T19:39:31.072Z,102402.23
2018-12-29T19:42:03.087Z,102397.41
2018-12-29T19:44:34.136Z,102385.94
2018-12-29T19:47:04.567Z,102385.94
2018-12-29T19:49:35.867Z,102388.47
2018-12-29T19:52:06.316Z,102381.00
2018-12-29T19:54:39.347Z,102380.31
2018-12-29T19:57:11.138Z,102387.59
2018-12-29T20:00:01.996Z,102371.48
2018-12-29T20:02:27.749Z,102376.80
2018-12-29T20:04:58.530Z,102379.63
2018-12-29T20:07:30.981Z,102377.00
2018-12-29T20:10:02.882Z,102373.75
2018-12-29T20:12:34.225Z,102371.59
2018-12-29T20:15:05.263Z,102369.71
2018-12-29T20:17:36.247Z,102372.46
2018-12-29T20:20:12.372Z,102376.99
2018-12-29T20:22:43.042Z,102348.63
2018-12-29T20:25:13.738Z,102375.73
2018-12-29T20:27:44.160Z,102369.15
2018-12-29T20:30:14.818Z,102394.09
2018-12-29T20:32:45.580Z,102380.84
2018-12-29T20:35:25.658Z,102391.36
2018-12-29T20:37:56.559Z,102394.89
2018-12-29T20:40:27.070Z,102398.11
2018-12-29T20:42:59.087Z,102400.48
2018-12-29T20:45:29.617Z,102399.51
2018-12-29T20:48:00.002Z,102402.14
2018-12-29T20:50:31.073Z,102411.40
2018-12-29T20:53:06.740Z,102411.40
2018-12-29T20:55:37.462Z,102406.28
2018-12-29T20:58:10.768Z,102402.53
2018-12-29T21:00:41.629Z,102406.88
2018-12-29T21:03:11.965Z,102422.31
2018-12-29T21:05:54.633Z,102421.51
2018-12-29T21:08:22.192Z,102412.56
2018-12-29T21:10:59.200Z,102417.67
2018-12-29T21:13:29.675Z,102440.88
2018-12-29T21:16:00.548Z,102432.23
2018-12-29T21:18:35.535Z,102434.90
2018-12-29T21:21:06.167Z,102441.76
2018-12-29T21:23:36.520Z,102442.65
2018-12-29T21:26:10.623Z,102436.25
2018-12-29T21:28:41.179Z,102438.03
2018-12-29T21:31:11.781Z,102440.09
2018-12-29T21:33:46.944Z,102444.22
2018-12-29T21:36:17.593Z,102461.22
2018-12-29T21:38:47.976Z,102456.42
2018-12-29T21:41:19.961Z,102465.64
2018-12-29T21:43:53.658Z,102465.94
2018-12-29T21:46:38.122Z,102469.27
2018-12-29T21:49:08.641Z,102464.66
2018-12-29T21:51:48.380Z,102464.64
2018-12-29T21:54:22.980Z,102460.10
2018-12-29T21:56:53.517Z,102460.91
2018-12-29T21:59:26.662Z,102460.70
2018-12-29T22:01:56.934Z,102456.87
2018-12-29T22:04:34.053Z,102465.52
2018-12-29T22:07:04.331Z,102481.73
2018-12-29T22:09:34.794Z,102485.65
2018-12-29T22:12:09.921Z,102486.83
2018-12-29T22:14:42.326Z,102478.50
2018-12-29T22:17:13.052Z,102487.06
2018-12-29T22:19:45.129Z,102489.18
2018-12-29T22:22:15.550Z,102484.47
2018-12-29T22:24:53.763Z,102474.96
2018-12-29T22:27:24.133Z,102473.20
2018-12-29T22:29:54.818Z,102461.88
2018-12-29T22:32:31.755Z,102464.72
2018-12-29T22:35:03.557Z,102485.45
2018-12-29T22:37:48.659Z,102504.13
2018-12-29T22:40:16.340Z,102503.42
2018-12-29T22:42:46.918Z,102503.42
2018-12-29T22:45:17.389Z,102501.05
2018-12-29T22:47:48.579Z,102502.92
2018-12-29T22:50:19.328Z,102501.46
2018-12-29T22:52:51.870Z,102509.90
2018-12-29T22:55:22.794Z,102509.52
2018-12-29T22:57:57.959Z,102517.98
2018-12-29T23:00:39.625Z,102512.00
2018-12-29T23:03:10.348Z,102512.86
2018-12-29T23:05:44.298Z,102518.73
2018-12-29T23:08:16.151Z,102517.02
2018-12-29T23:10:46.724Z,102519.57
2018-12-29T23:13:19.567Z,102513.27
2018-12-29T23:15:50.241Z,102512.61
2018-12-29T23:18:20.572Z,102515.97
2018-12-29T23:20:51.487Z,102523.02
2018-12-29T23:23:22.368Z,102530.41
2018-12-29T23:26:01.657Z,102542.83
2018-12-29T23:28:32.588Z,102531.73
2018-12-29T23:31:03.334Z,102531.73
2018-12-29T23:33:37.788Z,102545.22
2018-12-29T23:36:08.276Z,102545.36
2018-12-29T23:38:39.238Z,102545.38
2018-12-29T23:41:14.657Z,102551.87
2018-12-29T23:43:45.435Z,102561.11
2018-12-29T23:46:21.712Z,102566.90
2018-12-29T23:48:53.993Z,102567.38
2018-12-29T23:51:25.510Z,102570.34
2018-12-29T23:53:55.968Z,102577.30
2018-12-29T23:56:26.741Z,102584.87
2018-12-29T23:58:57.346Z,102583.17
